Atlanticbeach, North Carolina
Current Conditions -  °F | °C
As of 10:58 PM on Wednesday 22 Oct 2014 (Local Time) from KMRH Reporting Station
Clear Clear  
Wind Chill: 58°   Ceiling: Unl
Heat Index: 58°   Visibility: 10mi
Dew Point: 48°   Wind: 17mph
Humidity: 70%   Direction: 330°NNW
Pressure: 29.97"   Gusts: NA
Location:  34.6984°N, 76.7775°W
Report Text: KMRH 230258Z AUTO 33015KT 10SM CLR 14/09 A2997 RMK AO2 SLP150 T01440089 50012 TSNO
Loading
Personal Weather Stations






























Interactive Weather Map
Tropical Storm Tracking
New forecast layout! Learn more

10-Day Weather Forecast

Advertisements
Track Severe Weather on mobile